Time;durP1;ratioP1;P1;durP2;ratioP2;P2;SDS_P1;SDS_P2;PMS_P1;PMS_P2;Temp;Humidity;BMP_temperature;BMP_pressure;BME280_temperature;BME280_humidity;BME280_pressure;Samples;Min_cycle;Max_cycle;Signal;HPM_P1;HPM_P2
2021/09/16 00:01:16;;;;;;;9.02;4.88;;;15.40;99.90;;;;;;5127913;28;20162;-72
2021/09/16 00:03:42;;;;;;;6.22;4.25;;;15.40;99.90;;;;;;5110258;28;20230;-71
2021/09/16 00:06:07;;;;;;;12.80;4.30;;;15.40;99.90;;;;;;5128315;28;20245;-71
2021/09/16 00:08:33;;;;;;;5.20;4.07;;;15.30;99.90;;;;;;5128422;28;20239;-71
2021/09/16 00:10:59;;;;;;;10.45;4.78;;;15.30;99.90;;;;;;5127807;28;20182;-71
2021/09/16 00:13:25;;;;;;;9.32;4.40;;;15.30;99.90;;;;;;5128565;28;20193;-71
2021/09/16 00:15:53;;;;;;;13.30;4.65;;;15.30;99.90;;;;;;5127997;28;20186;-71
2021/09/16 00:18:19;;;;;;;16.58;4.35;;;15.30;99.90;;;;;;5128247;28;20193;-71
2021/09/16 00:20:45;;;;;;;10.70;4.57;;;15.30;99.90;;;;;;5127820;28;20269;-71
2021/09/16 00:23:11;;;;;;;8.40;4.30;;;15.30;99.90;;;;;;5128149;28;20159;-71
2021/09/16 00:25:36;;;;;;;7.32;4.57;;;15.20;99.90;;;;;;5127767;28;20173;-71
2021/09/16 00:28:02;;;;;;;8.00;4.05;;;15.10;99.90;;;;;;5128268;28;20192;-71
2021/09/16 00:30:28;;;;;;;6.10;3.88;;;15.10;99.90;;;;;;5127788;28;20170;-71
2021/09/16 00:32:53;;;;;;;9.55;4.70;;;15.10;99.90;;;;;;5127577;28;20182;-71
2021/09/16 00:35:20;;;;;;;8.77;3.90;;;15.00;99.90;;;;;;5127836;28;20190;-71
2021/09/16 00:37:46;;;;;;;5.95;3.97;;;14.90;99.90;;;;;;5127663;28;20159;-71
2021/09/16 00:40:12;;;;;;;6.63;3.60;;;14.90;99.90;;;;;;5127430;28;20197;-71
2021/09/16 00:42:38;;;;;;;10.75;4.20;;;14.80;99.90;;;;;;5127357;28;20249;-71
2021/09/16 00:45:04;;;;;;;9.13;4.15;;;14.80;99.90;;;;;;5127639;28;20243;-71
2021/09/16 00:47:29;;;;;;;7.78;4.60;;;15.00;99.90;;;;;;5127601;28;20194;-72
2021/09/16 00:49:55;;;;;;;10.52;4.15;;;15.00;99.90;;;;;;5127500;28;20162;-71
2021/09/16 00:52:22;;;;;;;11.43;4.57;;;14.90;99.90;;;;;;5108637;28;20666;-71
2021/09/16 00:54:49;;;;;;;12.75;4.78;;;15.00;99.90;;;;;;5127111;28;20238;-71
2021/09/16 00:57:17;;;;;;;8.88;4.18;;;14.90;99.90;;;;;;5127382;28;20192;-71
2021/09/16 00:59:45;;;;;;;5.55;4.00;;;14.90;99.90;;;;;;5127306;28;20162;-71
2021/09/16 01:02:11;;;;;;;9.02;4.28;;;14.80;99.90;;;;;;5127009;28;20211;-71
2021/09/16 01:04:37;;;;;;;7.38;4.85;;;14.80;99.90;;;;;;5127601;28;20163;-71
2021/09/16 01:07:03;;;;;;;7.82;4.63;;;14.90;99.90;;;;;;5108645;28;20675;-71
2021/09/16 01:09:31;;;;;;;6.85;4.95;;;15.00;99.90;;;;;;5126776;28;20694;-71
2021/09/16 01:11:57;;;;;;;8.45;4.63;;;15.00;99.90;;;;;;5142969;27;20164;-71
2021/09/16 01:14:24;;;;;;;8.98;5.38;;;14.90;99.90;;;;;;5127114;28;20246;-71
2021/09/16 01:16:51;;;;;;;8.70;5.25;;;14.80;99.90;;;;;;5108676;28;20698;-71
2021/09/16 01:19:17;;;;;;;13.40;5.93;;;14.80;99.90;;;;;;5127102;28;20190;-71
2021/09/16 01:21:42;;;;;;;14.18;5.13;;;14.70;99.90;;;;;;5126603;28;20272;-72
2021/09/16 01:24:08;;;;;;;9.18;4.93;;;14.70;99.90;;;;;;5108852;28;20159;-71
2021/09/16 01:26:33;;;;;;;9.80;5.47;;;14.60;99.90;;;;;;5126408;28;20166;-71
2021/09/16 01:28:59;;;;;;;8.57;5.10;;;14.60;99.90;;;;;;5108620;28;20261;-71
2021/09/16 01:31:40;;;;;;;11.82;4.85;;;14.70;99.90;;;;;;5126694;28;20190;-71
2021/09/16 01:34:08;;;;;;;8.52;4.60;;;14.70;99.90;;;;;;5127014;28;20611;-71
2021/09/16 01:36:35;;;;;;;11.40;5.60;;;14.70;99.90;;;;;;5126475;28;20191;-71
2021/09/16 01:39:03;;;;;;;11.63;5.38;;;14.70;99.90;;;;;;5126999;28;20158;-71
2021/09/16 01:41:30;;;;;;;7.88;4.70;;;14.80;99.90;;;;;;5125849;28;20513;-71
2021/09/16 01:43:55;;;;;;;9.57;4.78;;;14.90;99.90;;;;;;5126649;28;20642;-71
2021/09/16 01:46:21;;;;;;;11.13;4.78;;;15.00;99.90;;;;;;5126827;28;20173;-71
2021/09/16 01:48:47;;;;;;;9.18;5.13;;;15.10;99.90;;;;;;5126776;28;20192;-71
2021/09/16 01:51:12;;;;;;;11.88;4.65;;;15.20;99.90;;;;;;5126395;28;20181;-71
2021/09/16 01:53:38;;;;;;;6.65;4.18;;;15.20;99.90;;;;;;5126770;28;20155;-71
2021/09/16 01:56:04;;;;;;;9.38;4.68;;;15.20;99.90;;;;;;5126321;28;20622;-71
2021/09/16 01:58:30;;;;;;;7.32;4.35;;;15.40;99.90;;;;;;5126586;28;20197;-71
2021/09/16 02:00:56;;;;;;;16.52;4.65;;;15.30;99.90;;;;;;5108190;28;20520;-71
2021/09/16 02:03:22;;;;;;;8.38;4.35;;;15.40;99.90;;;;;;5110452;28;20223;-71
2021/09/16 02:05:48;;;;;;;14.05;5.20;;;15.30;99.90;;;;;;5130560;28;20167;-71
2021/09/16 02:08:13;;;;;;;9.68;4.68;;;15.30;99.90;;;;;;5130702;28;20252;-71
2021/09/16 02:10:39;;;;;;;11.75;4.90;;;15.50;99.90;;;;;;5130411;28;20173;-71
2021/09/16 02:13:05;;;;;;;8.55;4.80;;;15.70;99.90;;;;;;5130389;28;20171;-72
2021/09/16 02:15:30;;;;;;;7.82;4.45;;;15.70;99.90;;;;;;5112432;28;20208;-71
2021/09/16 02:17:56;;;;;;;12.77;4.85;;;15.60;99.90;;;;;;5130448;28;20246;-71
2021/09/16 02:20:22;;;;;;;11.57;4.43;;;15.50;99.90;;;;;;5130415;28;20413;-72
2021/09/16 02:22:47;;;;;;;13.95;4.93;;;15.40;99.90;;;;;;5130434;28;20163;-71
2021/09/16 02:25:13;;;;;;;11.70;4.57;;;15.40;99.90;;;;;;5129957;28;20516;-71
2021/09/16 02:27:39;;;;;;;7.68;5.00;;;15.30;99.90;;;;;;5130245;28;20670;-71
2021/09/16 02:30:05;;;;;;;7.68;4.45;;;15.30;99.90;;;;;;5130373;28;20185;-71
2021/09/16 02:32:31;;;;;;;8.55;4.55;;;15.20;99.90;;;;;;5129919;28;20179;-71
2021/09/16 02:34:57;;;;;;;10.65;5.05;;;15.30;99.90;;;;;;5130324;28;20207;-71
2021/09/16 02:37:23;;;;;;;11.13;5.30;;;15.20;99.90;;;;;;5129939;28;20162;-71
2021/09/16 02:39:49;;;;;;;10.25;5.20;;;15.20;99.90;;;;;;5130059;28;20196;-71
2021/09/16 02:42:14;;;;;;;6.30;4.70;;;15.10;99.90;;;;;;5129807;28;20201;-71
2021/09/16 02:44:40;;;;;;;10.05;5.75;;;15.10;99.90;;;;;;5130200;28;20155;-71
2021/09/16 02:47:06;;;;;;;9.45;5.43;;;15.00;99.90;;;;;;5129925;28;20700;-71
2021/09/16 02:49:31;;;;;;;10.65;5.57;;;14.80;99.90;;;;;;5130158;28;20173;-71
2021/09/16 02:51:57;;;;;;;11.02;5.25;;;14.90;99.90;;;;;;5129540;28;20545;-71
2021/09/16 02:54:23;;;;;;;9.15;6.18;;;14.90;99.90;;;;;;5129547;28;20246;-71
2021/09/16 02:56:49;;;;;;;6.95;5.88;;;14.90;99.90;;;;;;5129857;28;20179;-71
2021/09/16 02:59:15;;;;;;;8.65;5.88;;;14.90;99.90;;;;;;5129920;28;20218;-72
2021/09/16 03:01:41;;;;;;;11.82;6.30;;;14.90;99.90;;;;;;5129188;28;20163;-71
2021/09/16 03:04:06;;;;;;;9.05;6.00;;;14.70;99.90;;;;;;5111749;28;20760;-72
2021/09/16 03:06:32;;;;;;;9.80;5.85;;;14.70;99.90;;;;;;5129436;28;20186;-71
2021/09/16 03:08:58;;;;;;;11.95;6.25;;;14.60;99.90;;;;;;5129465;28;20214;-71
2021/09/16 03:11:23;;;;;;;11.38;6.50;;;14.60;99.90;;;;;;5110607;28;20181;-71
2021/09/16 03:13:49;;;;;;;11.38;6.13;;;14.60;99.90;;;;;;5129412;28;20162;-72
2021/09/16 03:16:15;;;;;;;13.82;6.95;;;14.60;99.90;;;;;;5129330;28;20190;-71
2021/09/16 03:18:40;;;;;;;17.80;6.90;;;14.60;99.90;;;;;;5111271;28;20163;-71
2021/09/16 03:21:06;;;;;;;10.23;6.53;;;14.80;99.90;;;;;;5129235;28;20159;-71
2021/09/16 03:23:31;;;;;;;10.80;7.25;;;14.80;99.90;;;;;;5129420;28;20166;-71
2021/09/16 03:25:57;;;;;;;11.40;6.80;;;14.70;99.90;;;;;;5128841;28;20316;-71
2021/09/16 03:28:23;;;;;;;17.73;7.72;;;14.60;99.90;;;;;;5129358;28;20166;-71
2021/09/16 03:30:48;;;;;;;13.20;6.63;;;14.60;99.90;;;;;;5129107;28;20194;-71
2021/09/16 03:33:14;;;;;;;13.63;6.65;;;14.50;99.90;;;;;;5110864;28;20215;-71
2021/09/16 03:35:40;;;;;;;15.15;6.50;;;14.50;99.90;;;;;;5129080;28;20701;-71
2021/09/16 03:38:05;;;;;;;8.70;6.85;;;14.60;99.90;;;;;;5129151;28;20154;-71
2021/09/16 03:40:31;;;;;;;12.43;6.90;;;14.60;99.90;;;;;;5128746;28;20163;-71
2021/09/16 03:42:57;;;;;;;14.13;6.85;;;14.60;99.90;;;;;;5128578;28;20356;-71
2021/09/16 03:45:22;;;;;;;9.75;6.22;;;14.50;99.90;;;;;;5128972;28;20159;-71
2021/09/16 03:47:48;;;;;;;11.57;6.40;;;14.40;99.90;;;;;;5128811;28;20159;-71
2021/09/16 03:50:14;;;;;;;11.30;6.65;;;14.50;99.90;;;;;;5128937;28;20165;-71
2021/09/16 03:52:40;;;;;;;11.52;7.18;;;14.50;99.90;;;;;;5127979;28;20446;-71
2021/09/16 03:55:06;;;;;;;8.40;6.50;;;14.60;99.90;;;;;;5127998;28;20194;-71
2021/09/16 03:57:32;;;;;;;12.07;7.43;;;14.70;99.90;;;;;;5128797;28;20246;-71
2021/09/16 03:59:57;;;;;;;14.85;7.10;;;14.70;99.90;;;;;;5128540;28;20185;-71
2021/09/16 04:02:23;;;;;;;12.63;8.05;;;14.70;99.90;;;;;;5128185;28;20155;-71
2021/09/16 04:04:49;;;;;;;13.98;7.70;;;14.70;99.90;;;;;;5128279;28;20183;-71
2021/09/16 04:07:14;;;;;;;15.93;7.75;;;14.70;99.90;;;;;;5127946;28;20246;-71
2021/09/16 04:09:40;;;;;;;10.93;8.10;;;14.60;99.90;;;;;;5127961;28;20210;-71
2021/09/16 04:12:06;;;;;;;10.73;6.65;;;14.60;99.90;;;;;;5127998;28;20165;-71
2021/09/16 04:14:31;;;;;;;12.88;7.53;;;14.60;99.90;;;;;;5128332;28;20179;-71
2021/09/16 04:16:57;;;;;;;10.98;7.15;;;14.70;99.90;;;;;;5128089;28;20570;-71
2021/09/16 04:19:23;;;;;;;15.90;7.68;;;14.70;99.90;;;;;;5128137;28;20159;-71
2021/09/16 04:21:48;;;;;;;13.60;7.25;;;14.70;99.90;;;;;;5127804;28;20188;-71
2021/09/16 04:24:16;;;;;;;13.63;7.57;;;14.80;99.90;;;;;;5127489;28;20192;-71
2021/09/16 04:26:43;;;;;;;16.00;8.02;;;14.80;99.90;;;;;;5126067;28;20170;-71
2021/09/16 04:29:09;;;;;;;15.75;8.20;;;14.80;99.90;;;;;;5127324;28;20162;-71
2021/09/16 04:31:34;;;;;;;15.23;8.60;;;15.00;99.90;;;;;;5127750;28;20167;-71
2021/09/16 04:34:00;;;;;;;12.25;7.60;;;15.00;99.90;;;;;;5127638;28;20182;-71
2021/09/16 04:36:25;;;;;;;14.65;8.85;;;15.00;99.90;;;;;;5127634;28;20534;-71
2021/09/16 04:38:51;;;;;;;9.45;7.55;;;15.10;99.90;;;;;;5127983;28;20154;-71
2021/09/16 04:41:17;;;;;;;14.38;8.55;;;15.00;99.90;;;;;;5127400;28;20647;-71
2021/09/16 04:43:42;;;;;;;13.35;8.27;;;15.20;99.90;;;;;;5127681;28;20169;-72
2021/09/16 04:46:08;;;;;;;17.15;8.43;;;15.40;99.90;;;;;;5109600;28;20154;-71
2021/09/16 04:48:33;;;;;;;14.18;8.90;;;15.60;99.90;;;;;;5127601;28;20651;-72
2021/09/16 04:50:59;;;;;;;12.15;8.90;;;15.50;99.90;;;;;;5127442;28;20166;-71
2021/09/16 04:53:25;;;;;;;14.20;8.77;;;15.50;99.90;;;;;;5109186;28;20155;-71
2021/09/16 04:55:50;;;;;;;15.43;9.23;;;15.30;99.90;;;;;;5127097;28;20246;-71
2021/09/16 04:58:16;;;;;;;15.55;8.65;;;15.20;99.90;;;;;;5109210;28;20166;-71
2021/09/16 05:00:42;;;;;;;10.85;8.55;;;15.10;99.90;;;;;;5127526;28;20163;-71
2021/09/16 05:03:07;;;;;;;18.70;9.38;;;15.20;99.90;;;;;;5127119;28;20215;-71
2021/09/16 05:05:33;;;;;;;14.30;8.88;;;15.10;99.90;;;;;;5127387;28;20643;-72
2021/09/16 05:08:00;;;;;;;14.48;8.88;;;15.20;99.90;;;;;;5108633;28;20221;-71
2021/09/16 05:10:25;;;;;;;24.20;9.15;;;15.10;99.90;;;;;;5108666;28;20178;-71
2021/09/16 05:12:51;;;;;;;13.95;8.77;;;15.20;99.90;;;;;;5127049;28;20171;-71
2021/09/16 05:15:17;;;;;;;16.42;8.98;;;15.20;99.90;;;;;;5127398;28;20190;-71
2021/09/16 05:17:43;;;;;;;13.95;9.55;;;15.20;99.90;;;;;;5127063;28;20155;-71
2021/09/16 05:20:09;;;;;;;16.98;9.90;;;15.30;99.90;;;;;;5127234;28;20162;-71
2021/09/16 05:22:35;;;;;;;15.48;9.95;;;15.40;99.90;;;;;;5126709;28;20162;-71
2021/09/16 05:25:01;;;;;;;14.98;9.18;;;15.50;99.90;;;;;;5108312;28;20187;-71
2021/09/16 05:27:27;;;;;;;16.25;9.15;;;15.50;99.90;;;;;;5108742;28;20174;-71
2021/09/16 05:29:53;;;;;;;21.95;9.45;;;15.50;99.90;;;;;;5108401;28;20173;-71
2021/09/16 05:32:18;;;;;;;15.30;9.65;;;15.40;99.90;;;;;;5126706;28;20163;-72
2021/09/16 05:34:44;;;;;;;14.35;9.55;;;15.60;99.90;;;;;;5126929;28;20173;-71
2021/09/16 05:37:10;;;;;;;17.45;9.73;;;15.50;99.90;;;;;;5126114;28;20233;-71
2021/09/16 05:39:37;;;;;;;17.50;10.00;;;15.60;99.90;;;;;;5126739;28;20166;-71
2021/09/16 05:42:04;;;;;;;24.80;9.93;;;15.60;99.90;;;;;;5126408;28;20166;-71
2021/09/16 05:44:29;;;;;;;14.13;9.40;;;15.50;99.90;;;;;;5126694;28;20189;-71
2021/09/16 05:46:55;;;;;;;15.63;9.63;;;15.50;99.90;;;;;;5126833;28;20163;-71
2021/09/16 05:49:21;;;;;;;19.90;10.50;;;15.50;99.90;;;;;;5126788;28;20166;-71
2021/09/16 05:51:47;;;;;;;23.35;9.93;;;15.40;99.90;;;;;;5126484;28;20171;-71
2021/09/16 05:54:13;;;;;;;20.38;10.48;;;15.30;99.90;;;;;;5108359;28;20174;-71
2021/09/16 05:56:38;;;;;;;22.52;11.40;;;15.30;99.90;;;;;;5126172;28;20259;-71
2021/09/16 05:59:04;;;;;;;15.73;11.35;;;15.60;99.90;;;;;;5126939;28;20211;-71
2021/09/16 06:01:30;;;;;;;17.10;11.90;;;15.50;99.90;;;;;;5126367;28;20241;-71
2021/09/16 06:03:56;;;;;;;24.77;11.98;;;15.40;99.90;;;;;;5126346;28;20159;-71
2021/09/16 06:06:22;;;;;;;19.67;12.18;;;15.30;99.90;;;;;;5126533;28;20167;-71
2021/09/16 06:08:48;;;;;;;18.10;12.23;;;15.50;99.90;;;;;;5126168;28;20641;-71
2021/09/16 06:11:14;;;;;;;26.73;13.15;;;15.50;99.90;;;;;;5107537;28;20186;-71
2021/09/16 06:13:39;;;;;;;24.42;13.02;;;15.60;99.90;;;;;;5126025;28;20162;-71
2021/09/16 06:16:06;;;;;;;20.75;14.68;;;15.60;99.90;;;;;;5126433;28;20271;-72
2021/09/16 06:18:32;;;;;;;26.25;15.43;;;15.60;99.90;;;;;;5107938;28;20159;-71
2021/09/16 06:20:57;;;;;;;31.77;15.85;;;15.60;99.90;;;;;;5126283;28;20178;-71
2021/09/16 06:23:23;;;;;;;29.05;16.75;;;15.60;99.90;;;;;;5126156;28;20165;-71
2021/09/16 06:25:49;;;;;;;28.20;16.73;;;15.70;99.90;;;;;;5125928;28;20197;-71
2021/09/16 06:28:15;;;;;;;29.55;16.95;;;15.60;99.90;;;;;;5125918;28;20162;-72
2021/09/16 06:30:40;;;;;;;28.33;16.75;;;15.70;99.90;;;;;;5125887;28;20167;-72
2021/09/16 06:33:07;;;;;;;25.88;17.67;;;15.60;99.90;;;;;;5125775;28;20191;-72
2021/09/16 06:35:32;;;;;;;29.67;17.75;;;15.60;99.90;;;;;;5126138;28;20217;-71
2021/09/16 06:37:58;;;;;;;29.42;18.95;;;15.70;99.90;;;;;;5126130;28;20170;-72
2021/09/16 06:40:24;;;;;;;34.67;18.60;;;15.60;99.90;;;;;;5125828;28;20174;-71
2021/09/16 06:42:50;;;;;;;31.20;18.77;;;15.60;99.90;;;;;;5125610;28;20166;-72
2021/09/16 06:45:16;;;;;;;35.80;18.13;;;15.50;99.90;;;;;;5125788;28;20214;-72
2021/09/16 06:47:42;;;;;;;34.70;19.17;;;15.60;99.90;;;;;;5125913;28;20188;-72
2021/09/16 06:50:08;;;;;;;32.90;19.75;;;15.70;99.90;;;;;;5129438;28;20174;-72
2021/09/16 06:52:34;;;;;;;37.40;18.85;;;15.80;99.90;;;;;;5129396;28;20178;-71
2021/09/16 06:55:00;;;;;;;30.63;19.95;;;16.00;99.90;;;;;;5129123;28;20246;-71
2021/09/16 06:57:25;;;;;;;40.03;20.48;;;16.00;99.90;;;;;;5129773;28;20154;-71
2021/09/16 06:59:51;;;;;;;36.55;19.75;;;16.00;99.90;;;;;;5129485;28;20154;-71
2021/09/16 07:02:17;;;;;;;40.83;20.75;;;16.00;99.90;;;;;;5129407;28;20167;-70
2021/09/16 07:04:43;;;;;;;37.10;20.35;;;16.10;99.90;;;;;;5129516;28;20163;-71
2021/09/16 07:07:08;;;;;;;36.45;21.80;;;16.20;99.90;;;;;;5110711;28;20190;-71
2021/09/16 07:09:36;;;;;;;42.20;21.88;;;16.10;99.90;;;;;;5129251;28;20692;-71
2021/09/16 07:12:03;;;;;;;36.60;22.88;;;16.10;99.90;;;;;;5129144;28;20170;-70
2021/09/16 07:14:30;;;;;;;38.13;22.48;;;16.30;99.90;;;;;;5129305;28;20162;-70
2021/09/16 07:16:57;;;;;;;44.00;22.88;;;16.30;99.90;;;;;;5129192;28;20189;-71
2021/09/16 07:19:23;;;;;;;41.35;23.95;;;16.30;99.90;;;;;;5110864;28;20526;-71
2021/09/16 07:21:49;;;;;;;38.28;23.42;;;16.40;99.90;;;;;;5110433;28;20166;-71
2021/09/16 07:24:15;;;;;;;39.78;22.58;;;16.50;99.90;;;;;;5110665;28;20165;-71
2021/09/16 07:26:42;;;;;;;41.40;22.23;;;16.60;99.90;;;;;;5128641;28;20213;-70
2021/09/16 07:29:08;;;;;;;37.53;22.35;;;16.80;99.90;;;;;;5128852;28;20401;-71
2021/09/16 07:31:34;;;;;;;33.95;21.80;;;16.70;99.90;;;;;;5128637;28;20159;-71
2021/09/16 07:34:00;;;;;;;36.72;23.00;;;16.80;99.90;;;;;;5110497;28;20162;-71
2021/09/16 07:36:26;;;;;;;40.20;21.77;;;16.70;99.90;;;;;;5110556;28;20224;-71
2021/09/16 07:38:52;;;;;;;34.80;21.15;;;16.70;99.90;;;;;;5128776;28;20645;-71
2021/09/16 07:41:18;;;;;;;32.28;21.95;;;16.70;99.90;;;;;;5128246;28;20237;-71
2021/09/16 07:43:44;;;;;;;40.67;23.23;;;16.70;99.90;;;;;;5128715;28;20170;-71
2021/09/16 07:46:10;;;;;;;35.25;23.23;;;16.80;99.90;;;;;;5128692;28;20188;-71
2021/09/16 07:48:35;;;;;;;40.63;24.98;;;16.80;99.90;;;;;;5128634;28;20159;-71
2021/09/16 07:51:01;;;;;;;35.40;23.02;;;16.90;99.90;;;;;;5128913;28;20173;-71
2021/09/16 07:53:29;;;;;;;37.95;22.25;;;17.00;99.90;;;;;;5128406;28;20182;-71
2021/09/16 07:55:55;;;;;;;37.58;22.17;;;17.00;99.90;;;;;;5128219;28;20182;-71
2021/09/16 07:58:22;;;;;;;35.95;22.25;;;17.00;99.90;;;;;;5128813;28;20155;-71
2021/09/16 08:00:48;;;;;;;35.17;22.30;;;17.10;99.90;;;;;;5127613;28;20169;-71
2021/09/16 08:03:13;;;;;;;33.72;22.50;;;17.20;99.90;;;;;;5128337;28;20198;-71
2021/09/16 08:05:40;;;;;;;34.35;20.90;;;17.30;99.90;;;;;;5128576;28;20183;-71
2021/09/16 08:08:06;;;;;;;32.63;20.88;;;17.30;99.90;;;;;;5127971;28;20693;-71
2021/09/16 08:10:32;;;;;;;34.47;21.52;;;17.30;99.90;;;;;;5127533;28;20216;-71
2021/09/16 08:12:58;;;;;;;34.83;21.08;;;17.40;99.90;;;;;;5128047;28;20166;-71
2021/09/16 08:15:23;;;;;;;27.88;19.58;;;17.30;99.90;;;;;;5128427;28;20197;-71
2021/09/16 08:17:49;;;;;;;27.83;19.58;;;17.40;99.90;;;;;;5128196;28;20155;-71
2021/09/16 08:20:15;;;;;;;26.75;19.90;;;17.30;99.90;;;;;;5128429;28;20166;-71
2021/09/16 08:22:44;;;;;;;32.00;19.45;;;17.40;99.90;;;;;;5127725;28;20198;-71
2021/09/16 08:25:10;;;;;;;27.83;19.33;;;17.60;99.90;;;;;;5127831;28;20173;-71
2021/09/16 08:27:36;;;;;;;31.50;18.38;;;17.80;99.90;;;;;;5128083;28;20177;-71
2021/09/16 08:30:07;;;;;;;27.08;18.95;;;17.90;99.90;;;;;;5127966;28;20242;-71
2021/09/16 08:32:33;;;;;;;25.13;17.40;;;18.00;99.90;;;;;;5127564;28;20171;-71
2021/09/16 08:34:59;;;;;;;30.50;16.98;;;18.10;99.90;;;;;;5127456;28;20186;-71
2021/09/16 08:37:25;;;;;;;33.47;15.85;;;18.00;99.90;;;;;;5127504;28;20169;-71
2021/09/16 08:39:51;;;;;;;24.08;16.23;;;18.10;99.90;;;;;;5127503;28;20218;-71
2021/09/16 08:42:17;;;;;;;29.38;17.02;;;18.20;99.90;;;;;;5108737;28;20170;-70
2021/09/16 08:44:44;;;;;;;23.52;16.45;;;18.30;99.90;;;;;;5127399;28;20205;-72
2021/09/16 08:47:13;;;;;;;28.55;16.52;;;18.30;99.90;;;;;;5127290;28;20500;-71
2021/09/16 08:49:39;;;;;;;21.75;15.88;;;18.30;99.90;;;;;;5127516;28;20184;-71
2021/09/16 08:52:05;;;;;;;19.23;12.50;;;18.40;99.90;;;;;;5127189;28;20166;-71
2021/09/16 08:54:31;;;;;;;22.55;13.15;;;18.50;99.90;;;;;;5127481;28;20172;-71
2021/09/16 08:56:59;;;;;;;17.38;12.73;;;18.60;99.90;;;;;;5126799;28;20194;-71
2021/09/16 08:59:24;;;;;;;19.42;11.25;;;18.70;99.90;;;;;;5127075;28;20169;-71
2021/09/16 09:01:50;;;;;;;13.68;11.63;;;18.80;99.90;;;;;;5127089;28;20163;-71
2021/09/16 09:04:16;;;;;;;16.38;11.23;;;19.00;99.90;;;;;;5107973;28;20196;-71
2021/09/16 09:06:43;;;;;;;16.63;11.75;;;19.10;99.90;;;;;;5108129;28;20545;-71
2021/09/16 09:09:19;;;;;;;20.40;10.65;;;19.20;99.90;;;;;;5108381;28;20584;-71
2021/09/16 09:11:52;;;;;;;13.98;10.27;;;19.30;99.90;;;;;;5126256;28;20174;-71
2021/09/16 09:14:20;;;;;;;13.02;10.55;;;19.40;99.90;;;;;;5126952;28;20189;-71
2021/09/16 09:16:46;;;;;;;14.70;10.60;;;19.50;99.90;;;;;;5127090;28;20273;-71
2021/09/16 09:19:17;;;;;;;12.02;9.52;;;19.50;99.90;;;;;;5127077;28;20223;-71
2021/09/16 09:21:44;;;;;;;12.60;9.48;;;19.80;99.90;;;;;;5126635;28;20611;-71
2021/09/16 09:24:10;;;;;;;11.27;8.05;;;19.80;99.90;;;;;;5126687;28;20179;-71
2021/09/16 09:26:38;;;;;;;49.35;11.02;;;19.70;99.90;;;;;;5126198;28;20181;-71
2021/09/16 09:29:07;;;;;;;32.70;9.98;;;19.90;99.90;;;;;;5108726;28;20461;-71
2021/09/16 09:31:38;;;;;;;16.38;8.75;;;19.70;99.90;;;;;;5126861;28;20166;-71
2021/09/16 09:34:29;;;;;;;12.52;7.53;;;19.80;99.90;;;;;;5126869;28;20192;-71
2021/09/16 09:37:19;;;;;;;12.45;9.30;;;20.00;99.90;;;;;;5108536;28;20197;-71
2021/09/16 09:39:58;;;;;;;13.60;10.27;;;20.00;99.90;;;;;;5126819;28;20143;-71
2021/09/16 09:42:28;;;;;;;11.52;8.95;;;19.90;99.90;;;;;;5125282;28;20169;-71
2021/09/16 09:45:06;;;;;;;11.52;7.40;;;20.10;99.90;;;;;;5126597;28;20196;-71
2021/09/16 09:47:39;;;;;;;15.07;6.90;;;20.30;99.90;;;;;;5126517;28;20295;-71
2021/09/16 09:50:22;;;;;;;15.13;5.97;;;20.20;99.90;;;;;;5126626;28;20189;-71
2021/09/16 09:52:50;;;;;;;50.30;10.10;;;20.00;99.90;;;;;;5107885;28;20174;-71
2021/09/16 09:55:20;;;;;;;12.20;6.95;;;20.00;99.90;;;;;;5107968;28;20209;-72
2021/09/16 09:57:46;;;;;;;10.55;6.50;;;20.20;99.90;;;;;;5126706;28;20155;-71
2021/09/16 10:00:16;;;;;;;11.38;5.95;;;20.30;99.90;;;;;;5126610;28;20174;-71
2021/09/16 10:02:52;;;;;;;9.45;6.30;;;20.30;99.90;;;;;;5126396;28;20167;-71
2021/09/16 10:05:47;;;;;;;14.85;5.82;;;20.50;99.90;;;;;;5126791;28;20170;-71
2021/09/16 10:08:13;;;;;;;9.50;6.18;;;20.40;99.90;;;;;;5141985;28;20215;-71
2021/09/16 10:10:52;;;;;;;11.80;6.22;;;20.50;99.90;;;;;;5126294;28;20178;-71
2021/09/16 10:13:19;;;;;;;5.50;4.53;;;20.40;99.90;;;;;;5126305;28;20171;-71
2021/09/16 10:15:52;;;;;;;9.15;5.10;;;20.70;99.90;;;;;;5108183;28;20193;-72
2021/09/16 10:18:19;;;;;;;7.68;6.88;;;21.00;99.90;;;;;;5126410;28;20163;-71
2021/09/16 10:20:48;;;;;;;8.88;6.40;;;20.80;99.90;;;;;;5142379;28;20163;-71
2021/09/16 10:23:15;;;;;;;7.88;6.03;;;20.80;99.90;;;;;;5126553;28;20163;-71
2021/09/16 10:25:48;;;;;;;11.60;5.93;;;20.90;99.90;;;;;;5130233;28;20169;-71
2021/09/16 10:28:15;;;;;;;11.85;6.20;;;21.00;99.90;;;;;;5130523;28;20162;-71
2021/09/16 10:30:43;;;;;;;11.05;7.25;;;21.30;99.90;;;;;;5130314;28;20163;-72
2021/09/16 10:33:16;;;;;;;8.18;6.93;;;21.80;99.90;;;;;;5129323;28;20178;-72
2021/09/16 10:36:03;;;;;;;11.60;5.78;;;21.90;99.90;;;;;;5130112;28;20204;-72
2021/09/16 10:38:46;;;;;;;6.47;5.13;;;21.80;99.90;;;;;;5130011;28;20171;-71
2021/09/16 10:41:26;;;;;;;7.60;6.07;;;21.60;99.90;;;;;;5129834;28;20169;-71
2021/09/16 10:44:18;;;;;;;9.98;6.90;;;21.70;99.90;;;;;;5129728;28;20158;-71
2021/09/16 10:46:46;;;;;;;9.20;6.40;;;21.40;99.90;;;;;;5130067;28;20143;-71
2021/09/16 10:49:21;;;;;;;8.73;5.90;;;21.80;99.90;;;;;;5145688;27;20174;-71
2021/09/16 10:51:53;;;;;;;8.45;6.25;;;22.30;99.90;;;;;;5129563;28;20215;-71
2021/09/16 10:54:29;;;;;;;13.15;5.97;;;22.50;99.90;;;;;;5111362;28;20194;-71
2021/09/16 10:57:06;;;;;;;12.18;5.68;;;22.40;99.90;;;;;;5129382;28;20190;-71
2021/09/16 10:59:47;;;;;;;9.07;6.18;;;22.40;99.90;;;;;;5111303;28;20162;-72
2021/09/16 11:02:15;;;;;;;8.65;6.20;;;22.40;99.90;;;;;;5129562;28;20171;-71
2021/09/16 11:04:56;;;;;;;9.05;6.15;;;22.30;99.90;;;;;;5129544;28;20188;-71
2021/09/16 11:07:35;;;;;;;9.45;5.80;;;22.10;99.90;;;;;;5129564;28;20170;-71
2021/09/16 11:10:16;;;;;;;7.00;5.95;;;22.20;99.90;;;;;;5110419;28;20217;-71
2021/09/16 11:12:47;;;;;;;8.38;7.53;;;21.90;99.90;;;;;;5129258;28;20166;-71
2021/09/16 11:15:15;;;;;;;11.55;6.57;;;22.10;99.90;;;;;;5129433;28;20174;-71
2021/09/16 11:17:42;;;;;;;9.75;6.70;;;22.60;99.90;;;;;;5129241;28;20249;-71
2021/09/16 11:20:11;;;;;;;9.07;7.18;;;22.50;99.90;;;;;;5129354;28;20166;-72
2021/09/16 11:22:37;;;;;;;7.55;6.53;;;22.70;99.90;;;;;;5144832;27;20658;-72
2021/09/16 11:25:04;;;;;;;12.10;7.25;;;22.70;99.90;;;;;;5128859;28;20151;-72
2021/09/16 11:27:33;;;;;;;16.77;6.55;;;22.70;99.90;;;;;;5129155;28;20150;-71
2021/09/16 11:30:00;;;;;;;8.65;6.45;;;22.80;99.90;;;;;;5128884;28;20194;-71
2021/09/16 11:32:37;;;;;;;7.75;5.70;;;23.00;99.90;;;;;;5128916;28;20216;-71
2021/09/16 11:35:10;;;;;;;16.27;4.68;;;22.60;99.90;;;;;;5127662;28;20146;-71
2021/09/16 11:37:53;;;;;;;12.05;4.97;;;22.20;99.90;;;;;;5128854;28;20162;-71
2021/09/16 11:40:24;;;;;;;6.68;5.65;;;22.40;99.90;;;;;;5128785;28;20162;-72
2021/09/16 11:43:02;;;;;;;5.53;4.93;;;22.70;99.90;;;;;;5128340;28;20652;-71
2021/09/16 11:45:30;;;;;;;7.45;6.13;;;23.10;99.90;;;;;;5128720;28;20146;-71
2021/09/16 11:47:58;;;;;;;9.88;5.45;;;23.80;99.90;;;;;;5128551;28;20166;-72
2021/09/16 11:50:37;;;;;;;10.25;5.07;;;24.20;99.90;;;;;;5128881;28;20380;-72
2021/09/16 11:53:06;;;;;;;8.52;6.15;;;24.40;99.90;;;;;;5128334;28;20253;-72
2021/09/16 11:55:41;;;;;;;7.70;5.15;;;23.80;99.90;;;;;;5128240;28;20533;-71
2021/09/16 11:58:08;;;;;;;11.65;4.72;;;23.40;99.90;;;;;;5128853;28;20138;-71
2021/09/16 12:00:49;;;;;;;7.32;4.85;;;23.10;99.90;;;;;;5128404;28;20163;-71
2021/09/16 12:03:26;;;;;;;5.68;4.57;;;22.80;99.90;;;;;;5128136;28;20243;-71
2021/09/16 12:05:52;;;;;;;6.43;4.60;;;22.70;99.90;;;;;;5128288;28;20169;-71
2021/09/16 12:08:38;;;;;;;9.23;4.80;;;23.00;99.90;;;;;;5109582;28;20230;-71
2021/09/16 12:11:08;;;;;;;5.50;4.57;;;23.10;99.90;;;;;;5109248;28;20250;-71
2021/09/16 12:13:41;;;;;;;11.35;5.07;;;23.80;99.90;;;;;;5127935;28;20230;-71
2021/09/16 12:16:13;;;;;;;7.03;5.22;;;24.20;99.90;;;;;;5109933;28;20200;-71
2021/09/16 12:18:44;;;;;;;4.93;4.53;;;24.70;99.90;;;;;;5128078;28;20171;-71
2021/09/16 12:21:19;;;;;;;4.38;3.90;;;24.90;99.90;;;;;;5127938;28;20196;-72
2021/09/16 12:23:50;;;;;;;5.88;5.20;;;25.30;99.90;;;;;;5127712;28;20209;-71
2021/09/16 12:26:19;;;;;;;4.45;4.05;;;25.00;99.90;;;;;;5127394;28;20224;-71
2021/09/16 12:29:10;;;;;;;7.70;5.18;;;24.90;99.90;;;;;;5127919;28;20245;-71
2021/09/16 12:31:38;;;;;;;10.90;4.75;;;24.10;99.90;;;;;;5117665;28;20182;-72
2021/09/16 12:34:05;;;;;;;5.78;5.20;;;23.60;99.90;;;;;;5109292;28;20173;-71
2021/09/16 12:36:33;;;;;;;7.18;5.65;;;23.70;99.90;;;;;;5127679;28;20190;-72
2021/09/16 12:39:12;;;;;;;9.52;5.88;;;23.90;99.90;;;;;;5127717;28;20165;-71
2021/09/16 12:41:43;;;;;;;7.32;5.75;;;24.10;99.90;;;;;;5143165;27;20170;-71